createdAt,value
2023-02-28T00:00:07.038Z,71.65
2023-02-28T00:01:07.103Z,72.09
2023-02-28T00:01:48.069Z,72.12
2023-02-28T00:02:35.041Z,71.78
2023-02-28T00:03:29.079Z,71.89
2023-02-28T00:04:23.031Z,72.04
2023-02-28T00:05:18.064Z,72.31
2023-02-28T00:06:12.031Z,72.51
2023-02-28T00:07:06.024Z,72.61
2023-02-28T00:07:54.046Z,72.59
2023-02-28T00:08:28.152Z,72.39
2023-02-28T00:09:15.054Z,73.18
2023-02-28T00:09:49.095Z,73.21
2023-02-28T00:10:38.016Z,72.87
2023-02-28T00:11:15.130Z,72.85
2023-02-28T00:12:02.042Z,73.26
2023-02-28T00:12:36.112Z,73.53
2023-02-28T00:13:17.056Z,73.64
2023-02-28T00:13:57.099Z,73.86
2023-02-28T00:14:38.021Z,73.59
2023-02-28T00:15:19.120Z,73.99
2023-02-28T00:16:14.061Z,73.51
2023-02-28T00:16:54.114Z,73.51
2023-02-28T00:17:34.001Z,74.01
2023-02-28T00:18:14.325Z,74.19
2023-02-28T00:18:55.043Z,73.98
2023-02-28T00:19:35.091Z,73.67
2023-02-28T00:20:17.031Z,73.46
2023-02-28T00:20:57.152Z,73.64
2023-02-28T00:21:38.003Z,73.59
2023-02-28T00:22:18.115Z,73.45
2023-02-28T00:23:00.004Z,73.04
2023-02-28T00:23:40.099Z,73.22
2023-02-28T00:24:20.044Z,73.17
2023-02-28T00:25:00.124Z,73.42
2023-02-28T00:25:40.026Z,73.47
2023-02-28T00:26:21.798Z,73.44
2023-02-28T00:27:03.008Z,73.30
2023-02-28T00:27:45.075Z,73.64
2023-02-28T00:28:25.998Z,73.42
2023-02-28T00:29:06.059Z,73.41
2023-02-28T00:29:47.007Z,73.73
2023-02-28T00:30:31.166Z,73.67
2023-02-28T00:31:12.084Z,73.20
2023-02-28T00:31:52.165Z,73.45
2023-02-28T00:32:33.017Z,73.57
2023-02-28T00:33:13.128Z,73.75
2023-02-28T00:33:53.008Z,73.40
2023-02-28T00:34:38.449Z,73.47
2023-02-28T00:35:19.039Z,73.29
2023-02-28T00:35:59.297Z,73.43
2023-02-28T00:36:38.984Z,73.74
2023-02-28T00:37:20.073Z,73.33
2023-02-28T00:38:00.037Z,73.87
2023-02-28T00:38:40.114Z,73.75
2023-02-28T00:39:21.016Z,73.67
2023-02-28T00:40:15.245Z,73.68
2023-02-28T00:40:55.007Z,73.79
2023-02-28T00:41:35.084Z,73.57
2023-02-28T00:42:15.979Z,73.79
2023-02-28T00:42:56.074Z,73.65
2023-02-28T00:43:36.986Z,73.53
2023-02-28T00:44:17.070Z,73.27
2023-02-28T00:44:56.992Z,73.38
2023-02-28T00:45:38.113Z,73.52
2023-02-28T00:46:18.106Z,73.14
2023-02-28T00:46:58.092Z,73.08
2023-02-28T00:47:39.986Z,73.64
2023-02-28T00:48:20.058Z,73.34
2023-02-28T00:48:59.986Z,73.42
2023-02-28T00:49:40.036Z,73.49
2023-02-28T00:50:20.005Z,73.53
2023-02-28T00:51:00.066Z,73.46
2023-02-28T00:51:41.005Z,73.94
2023-02-28T00:52:21.085Z,73.81
2023-02-28T00:53:00.986Z,73.86
2023-02-28T00:53:41.057Z,73.88
2023-02-28T00:54:20.982Z,73.78
2023-02-28T00:55:01.202Z,74.12
2023-02-28T00:55:41.957Z,73.58
2023-02-28T00:56:22.030Z,73.98
2023-02-28T00:57:02.045Z,74.17
2023-02-28T00:57:42.089Z,73.91
2023-02-28T00:58:21.997Z,73.61
2023-02-28T00:59:02.098Z,73.71
2023-02-28T00:59:42.970Z,73.65
2023-02-28T01:00:23.034Z,73.75
2023-02-28T01:01:03.056Z,73.80
2023-02-28T01:01:43.074Z,73.50
2023-02-28T01:02:22.989Z,73.79
2023-02-28T01:03:03.026Z,73.46
2023-02-28T01:03:43.992Z,73.69
2023-02-28T01:04:24.070Z,73.37
2023-02-28T01:05:03.990Z,73.63
2023-02-28T01:05:44.059Z,73.46
2023-02-28T01:06:23.993Z,73.68
2023-02-28T01:07:04.041Z,73.49
2023-02-28T01:07:45.966Z,73.73
2023-02-28T01:08:27.653Z,73.54
2023-02-28T01:09:08.005Z,73.26
2023-02-28T01:09:49.108Z,73.25
2023-02-28T01:10:28.975Z,73.50
2023-02-28T01:11:20.087Z,73.85
2023-02-28T01:12:00.964Z,73.81
2023-02-28T01:12:41.058Z,73.99
2023-02-28T01:13:21.978Z,73.64
2023-02-28T01:14:02.042Z,73.90
2023-02-28T01:14:42.964Z,73.66
2023-02-28T01:15:23.015Z,73.48
2023-02-28T01:16:03.981Z,73.69
2023-02-28T01:16:44.033Z,73.63
2023-02-28T01:17:23.979Z,73.90
2023-02-28T01:18:04.028Z,74.02
2023-02-28T01:18:44.979Z,73.72
2023-02-28T01:19:25.028Z,73.82
2023-02-28T01:20:05.973Z,73.36
2023-02-28T01:20:47.076Z,73.76
2023-02-28T01:21:29.155Z,73.30
2023-02-28T01:22:12.021Z,73.49
2023-02-28T01:22:52.040Z,73.82
2023-02-28T01:23:32.071Z,73.47
2023-02-28T01:24:12.985Z,73.58
2023-02-28T01:24:53.455Z,74.02
2023-02-28T01:25:33.086Z,73.74
2023-02-28T01:26:21.009Z,74.25
2023-02-28T01:27:01.959Z,73.86
2023-02-28T01:27:42.002Z,73.85
2023-02-28T01:28:22.962Z,74.00
2023-02-28T01:29:02.982Z,73.84
2023-02-28T01:29:42.998Z,74.13
2023-02-28T01:30:23.013Z,73.93
2023-02-28T01:31:03.021Z,74.02
2023-02-28T01:31:43.032Z,73.80
2023-02-28T01:32:24.004Z,73.96
2023-02-28T01:33:04.030Z,74.46
2023-02-28T01:33:45.923Z,74.38
2023-02-28T01:34:25.976Z,74.35
2023-02-28T01:35:05.951Z,74.57
2023-02-28T01:35:46.092Z,74.84
2023-02-28T01:36:29.972Z,74.94
2023-02-28T01:37:10.002Z,74.33
2023-02-28T01:37:49.959Z,74.73
2023-02-28T01:38:30.047Z,74.87
2023-02-28T01:39:10.947Z,74.79
2023-02-28T01:40:04.920Z,74.82
2023-02-28T01:40:45.933Z,74.76
2023-02-28T01:41:32.990Z,75.26
2023-02-28T01:42:12.943Z,75.16
2023-02-28T01:42:53.028Z,75.44
2023-02-28T01:43:39.712Z,75.34
2023-02-28T01:45:03.065Z,75.76
2023-02-28T01:45:43.938Z,76.10
2023-02-28T01:46:24.012Z,75.96
2023-02-28T01:47:03.909Z,75.80
2023-02-28T01:47:48.038Z,75.44
2023-02-28T01:48:34.915Z,75.78
2023-02-28T01:49:22.058Z,75.53
2023-02-28T01:50:02.955Z,75.34
2023-02-28T01:50:53.957Z,75.29
2023-02-28T01:51:59.932Z,75.82
2023-02-28T01:52:54.935Z,75.70
2023-02-28T01:54:01.908Z,75.35
2023-02-28T01:54:55.907Z,75.17
2023-02-28T01:55:50.920Z,75.19
2023-02-28T01:56:36.959Z,74.96
2023-02-28T01:57:20.980Z,74.88
2023-02-28T01:58:04.908Z,74.93
2023-02-28T01:58:44.973Z,75.30
2023-02-28T01:59:34.903Z,75.61
2023-02-28T02:00:21.999Z,75.39
2023-02-28T02:01:01.900Z,75.26
2023-02-28T02:01:49.094Z,75.66
2023-02-28T02:02:43.959Z,75.43
2023-02-28T02:03:38.935Z,75.47
2023-02-28T02:04:32.900Z,75.86
2023-02-28T02:05:35.916Z,75.34
2023-02-28T02:06:29.896Z,75.16
2023-02-28T02:07:10.900Z,74.84
2023-02-28T02:07:54.949Z,75.10
2023-02-28T02:08:36.921Z,74.90
2023-02-28T02:09:17.991Z,74.90
2023-02-28T02:10:07.915Z,74.88
2023-02-28T02:10:55.994Z,75.20
2023-02-28T02:11:36.904Z,74.83
2023-02-28T02:12:38.911Z,75.18
2023-02-28T02:14:05.896Z,75.63
2023-02-28T02:15:42.946Z,75.86
2023-02-28T02:17:00.895Z,75.12
2023-02-28T02:18:00.910Z,74.99
2023-02-28T02:19:08.887Z,75.09
2023-02-28T02:20:41.895Z,74.98
2023-02-28T02:22:28.882Z,75.54
2023-02-28T02:23:53.898Z,75.81
2023-02-28T02:25:18.938Z,76.30
2023-02-28T02:26:45.864Z,75.54
2023-02-28T02:27:51.972Z,75.92
2023-02-28T02:29:03.921Z,75.64
2023-02-28T02:30:33.948Z,76.17
2023-02-28T02:32:09.895Z,76.17
2023-02-28T02:33:17.933Z,77.27
2023-02-28T02:34:23.899Z,76.55
2023-02-28T02:35:23.971Z,77.06
2023-02-28T02:36:37.891Z,76.96
2023-02-28T02:38:03.933Z,77.43
2023-02-28T02:39:19.860Z,77.06
2023-02-28T02:40:09.873Z,77.23
2023-02-28T02:41:17.880Z,77.30
2023-02-28T02:42:16.874Z,77.59
2023-02-28T02:43:33.862Z,77.84
2023-02-28T02:44:58.861Z,77.49
2023-02-28T02:45:43.859Z,77.85
2023-02-28T02:46:44.000Z,77.42
2023-02-28T02:47:27.871Z,77.64
2023-02-28T02:48:09.924Z,77.43
2023-02-28T02:48:50.861Z,77.47
2023-02-28T02:49:40.920Z,77.69
2023-02-28T02:50:29.851Z,77.95
2023-02-28T02:51:19.877Z,77.54
2023-02-28T02:51:54.919Z,77.41
2023-02-28T02:52:52.853Z,77.96
2023-02-28T02:53:34.941Z,77.89
2023-02-28T02:54:35.869Z,78.20
2023-02-28T02:55:11.916Z,78.37
2023-02-28T02:56:01.847Z,77.88
2023-02-28T02:56:44.879Z,78.20
2023-02-28T02:57:46.859Z,77.78
2023-02-28T02:58:49.833Z,77.77
2023-02-28T02:59:44.848Z,78.12
2023-02-28T03:00:45.861Z,78.02
2023-02-28T03:01:40.856Z,78.18
2023-02-28T03:02:23.062Z,78.15
2023-02-28T03:03:04.916Z,78.44
2023-02-28T03:03:45.866Z,78.78
2023-02-28T03:04:28.905Z,78.83
2023-02-28T03:05:19.831Z,78.32
2023-02-28T03:06:00.171Z,78.83
2023-02-28T03:06:40.824Z,79.39
2023-02-28T03:07:20.924Z,79.40
2023-02-28T03:08:00.874Z,79.22
2023-02-28T03:08:45.912Z,79.47
2023-02-28T03:09:25.845Z,80.44
2023-02-28T03:10:05.899Z,80.15
2023-02-28T03:10:53.836Z,79.91
2023-02-28T03:11:33.903Z,79.88
2023-02-28T03:12:19.834Z,79.76
2023-02-28T03:13:32.869Z,79.66
2023-02-28T03:14:42.845Z,79.69
2023-02-28T03:15:46.827Z,79.94
2023-02-28T03:17:07.841Z,78.65
2023-02-28T03:18:26.833Z,78.88
2023-02-28T03:19:31.854Z,79.22
2023-02-28T03:21:03.883Z,79.26
2023-02-28T03:22:24.826Z,79.25
2023-02-28T03:23:30.893Z,79.05
2023-02-28T03:24:25.823Z,78.44
2023-02-28T03:25:35.841Z,79.19
2023-02-28T03:26:22.302Z,78.57
2023-02-28T03:27:31.835Z,77.84
2023-02-28T03:28:46.566Z,77.83
2023-02-28T03:29:45.812Z,77.63
2023-02-28T03:30:58.830Z,77.89
2023-02-28T03:32:02.930Z,77.72
2023-02-28T03:33:13.830Z,77.81
2023-02-28T03:34:21.813Z,77.96
2023-02-28T03:35:34.828Z,77.88
2023-02-28T03:36:25.828Z,77.52
2023-02-28T03:37:03.915Z,77.49
2023-02-28T03:37:51.798Z,77.75
2023-02-28T03:38:37.882Z,76.81
2023-02-28T03:39:43.842Z,78.49
2023-02-28T03:40:21.877Z,78.19
2023-02-28T03:41:24.817Z,79.11
2023-02-28T03:42:13.822Z,78.76
2023-02-28T03:43:13.795Z,78.67
2023-02-28T03:44:43.808Z,79.38
2023-02-28T03:45:45.835Z,78.65
2023-02-28T03:46:43.837Z,79.03
2023-02-28T03:47:58.803Z,78.81
2023-02-28T03:48:58.798Z,79.38
2023-02-28T03:50:08.832Z,79.50
2023-02-28T03:51:06.802Z,79.08
2023-02-28T03:52:01.805Z,79.54
2023-02-28T03:53:08.824Z,79.18
2023-02-28T03:54:10.809Z,79.57
2023-02-28T03:55:09.788Z,78.69
2023-02-28T03:56:16.789Z,78.07
2023-02-28T03:57:36.810Z,78.22
2023-02-28T03:58:49.776Z,77.57
2023-02-28T03:59:51.800Z,77.64
2023-02-28T04:01:23.841Z,77.89
2023-02-28T04:02:17.791Z,76.99
2023-02-28T04:03:19.840Z,76.93
2023-02-28T04:04:13.833Z,76.92
2023-02-28T04:05:07.778Z,77.53
2023-02-28T04:06:09.785Z,77.47
2023-02-28T04:07:05.786Z,77.62
2023-02-28T04:07:59.797Z,77.65
2023-02-28T04:08:39.911Z,78.22
2023-02-28T04:09:21.838Z,78.28
2023-02-28T04:10:02.773Z,78.25
2023-02-28T04:10:44.437Z,78.17
2023-02-28T04:11:53.764Z,78.59
2023-02-28T04:12:33.889Z,78.49
2023-02-28T04:13:13.782Z,79.28
2023-02-28T04:13:53.809Z,78.67
2023-02-28T04:14:27.851Z,78.88
2023-02-28T04:15:15.772Z,78.85
2023-02-28T04:15:49.890Z,79.13
2023-02-28T04:16:38.846Z,79.25
2023-02-28T04:17:12.834Z,79.63
2023-02-28T04:17:59.769Z,78.90
2023-02-28T04:18:33.837Z,79.46
2023-02-28T04:19:15.798Z,78.67
2023-02-28T04:19:58.188Z,79.41
2023-02-28T04:20:37.777Z,80.01
2023-02-28T04:21:21.659Z,79.97
2023-02-28T04:22:02.761Z,80.35
2023-02-28T04:22:43.813Z,79.67
2023-02-28T04:23:23.757Z,79.09
2023-02-28T04:24:03.816Z,78.52
2023-02-28T04:24:44.780Z,78.35
2023-02-28T04:25:24.853Z,78.64
2023-02-28T04:26:04.777Z,78.39
2023-02-28T04:26:44.829Z,78.00
2023-02-28T04:27:25.756Z,78.03
2023-02-28T04:28:05.866Z,78.48
2023-02-28T04:28:46.765Z,79.36
2023-02-28T04:29:33.202Z,78.76
2023-02-28T04:30:13.765Z,78.54
2023-02-28T04:31:18.763Z,78.96
2023-02-28T04:32:14.891Z,78.36
2023-02-28T04:33:08.793Z,78.14
2023-02-28T04:34:02.756Z,77.89
2023-02-28T04:34:56.783Z,77.86
2023-02-28T04:35:37.778Z,77.63
2023-02-28T04:36:18.801Z,77.85
2023-02-28T04:37:17.237Z,77.74
2023-02-28T04:37:57.797Z,78.05
2023-02-28T04:38:41.752Z,77.85
2023-02-28T04:39:22.860Z,77.90
2023-02-28T04:40:03.768Z,79.80
2023-02-28T04:40:50.768Z,78.78
2023-02-28T04:41:44.750Z,78.30
2023-02-28T04:42:42.736Z,78.61
2023-02-28T04:43:36.726Z,79.29
2023-02-28T04:44:31.743Z,79.56
2023-02-28T04:45:25.944Z,80.09
2023-02-28T04:46:13.780Z,79.50
2023-02-28T04:46:47.800Z,79.73
2023-02-28T04:47:34.805Z,79.45
2023-02-28T04:48:08.800Z,79.83
2023-02-28T04:48:56.725Z,79.38
2023-02-28T04:49:30.899Z,79.20
2023-02-28T04:50:17.720Z,78.21
2023-02-28T04:50:58.779Z,78.67
2023-02-28T04:51:39.764Z,77.65
2023-02-28T04:52:20.117Z,78.83
2023-02-28T04:52:59.735Z,78.63
2023-02-28T04:53:40.781Z,78.15
2023-02-28T04:54:20.722Z,78.47
2023-02-28T04:55:00.885Z,78.74
2023-02-28T04:55:40.719Z,77.95
2023-02-28T04:56:22.804Z,78.14
2023-02-28T04:57:03.731Z,79.47
2023-02-28T04:57:43.807Z,78.31
2023-02-28T04:58:23.732Z,79.00
2023-02-28T04:59:03.794Z,79.17
2023-02-28T04:59:43.726Z,79.03
2023-02-28T05:00:24.894Z,78.52
2023-02-28T05:01:32.720Z,78.53
2023-02-28T05:02:19.776Z,78.86
2023-02-28T05:03:13.715Z,79.03
2023-02-28T05:04:10.731Z,78.09
2023-02-28T05:05:04.827Z,78.56
2023-02-28T05:05:58.721Z,78.05
2023-02-28T05:06:52.735Z,77.60
2023-02-28T05:07:39.756Z,79.37
2023-02-28T05:08:13.764Z,79.01
2023-02-28T05:09:01.720Z,78.54
2023-02-28T05:09:35.773Z,78.44
2023-02-28T05:10:22.695Z,78.76
2023-02-28T05:10:56.783Z,79.98
2023-02-28T05:11:44.714Z,79.80
2023-02-28T05:12:18.815Z,79.40
2023-02-28T05:12:59.740Z,79.93
2023-02-28T05:13:39.759Z,80.08
2023-02-28T05:14:21.699Z,79.62
2023-02-28T05:15:02.990Z,79.56
2023-02-28T05:15:42.694Z,79.59
2023-02-28T05:16:23.847Z,78.63
2023-02-28T05:17:04.714Z,78.37
2023-02-28T05:17:44.777Z,79.34
2023-02-28T05:18:24.742Z,80.06
2023-02-28T05:19:04.953Z,79.40
2023-02-28T05:19:44.702Z,80.07
2023-02-28T05:20:24.753Z,79.92
2023-02-28T05:21:05.678Z,80.48
2023-02-28T05:21:49.757Z,80.68
2023-02-28T05:22:30.695Z,79.37
2023-02-28T05:23:10.760Z,79.20
2023-02-28T05:23:50.739Z,79.05
2023-02-28T05:24:30.868Z,79.17
2023-02-28T05:25:12.700Z,78.30
2023-02-28T05:25:53.830Z,78.79
2023-02-28T05:26:35.685Z,78.48
2023-02-28T05:27:15.754Z,78.16
2023-02-28T05:27:56.686Z,78.05
2023-02-28T05:28:36.756Z,78.21
2023-02-28T05:29:17.702Z,78.86
2023-02-28T05:29:57.785Z,78.59
2023-02-28T05:30:38.710Z,77.88
2023-02-28T05:31:33.099Z,78.23
2023-02-28T05:32:27.744Z,77.31
2023-02-28T05:33:25.683Z,77.97
2023-02-28T05:34:19.709Z,78.59
2023-02-28T05:35:13.723Z,78.00
2023-02-28T05:36:07.681Z,78.05
2023-02-28T05:37:01.703Z,77.76
2023-02-28T05:37:55.679Z,77.70
2023-02-28T05:38:49.685Z,78.17
2023-02-28T05:39:36.703Z,77.86
2023-02-28T05:40:11.748Z,77.67
2023-02-28T05:40:59.674Z,77.36
2023-02-28T05:41:33.757Z,77.85
2023-02-28T05:42:20.674Z,78.02
2023-02-28T05:42:54.739Z,77.82
2023-02-28T05:43:42.709Z,78.06
2023-02-28T05:44:17.902Z,77.25
2023-02-28T05:44:59.705Z,77.69
2023-02-28T05:45:39.806Z,77.82
2023-02-28T05:46:20.699Z,77.79
2023-02-28T05:47:00.786Z,78.26
2023-02-28T05:47:41.667Z,77.69
2023-02-28T05:48:21.745Z,78.31
2023-02-28T05:49:02.720Z,78.36
2023-02-28T05:49:42.747Z,77.76
2023-02-28T05:50:23.699Z,77.84
2023-02-28T05:51:05.739Z,78.04
2023-02-28T05:51:47.668Z,77.75
2023-02-28T05:52:27.784Z,78.16
2023-02-28T05:53:08.680Z,78.08
2023-02-28T05:53:50.161Z,77.71
2023-02-28T05:54:30.648Z,77.66
2023-02-28T05:55:11.744Z,78.47
2023-02-28T05:55:51.683Z,77.98
2023-02-28T05:56:31.741Z,77.93
2023-02-28T05:57:22.752Z,77.58
2023-02-28T05:58:04.727Z,77.29
2023-02-28T05:58:45.675Z,77.66
2023-02-28T05:59:25.744Z,77.59
2023-02-28T06:00:05.663Z,77.13
2023-02-28T06:00:46.453Z,77.10
2023-02-28T06:01:48.673Z,77.96
2023-02-28T06:02:29.323Z,77.93
2023-02-28T06:03:10.702Z,78.42
2023-02-28T06:03:50.841Z,77.74
2023-02-28T06:04:32.094Z,78.21
2023-02-28T06:05:14.938Z,77.73
2023-02-28T06:05:56.652Z,77.16
2023-02-28T06:06:37.803Z,77.71
2023-02-28T06:07:18.692Z,77.29
2023-02-28T06:07:58.701Z,77.46
2023-02-28T06:08:38.663Z,77.39
2023-02-28T06:09:20.078Z,77.24
2023-02-28T06:09:59.860Z,77.88
2023-02-28T06:10:40.722Z,77.81
2023-02-28T06:11:23.664Z,77.45
2023-02-28T06:12:11.924Z,77.65
2023-02-28T06:12:52.713Z,78.64
2023-02-28T06:13:34.963Z,78.19
2023-02-28T06:14:16.639Z,79.77
2023-02-28T06:14:56.704Z,79.59
2023-02-28T06:15:38.665Z,79.74
2023-02-28T06:16:19.755Z,79.93
2023-02-28T06:16:59.738Z,79.61
2023-02-28T06:17:39.722Z,80.35
2023-02-28T06:18:19.654Z,80.55
2023-02-28T06:18:59.711Z,80.42
2023-02-28T06:19:41.645Z,80.11
2023-02-28T06:20:21.727Z,80.27
2023-02-28T06:21:02.626Z,80.55
2023-02-28T06:21:42.706Z,80.76
2023-02-28T06:22:22.658Z,80.65
2023-02-28T06:23:05.714Z,80.76
2023-02-28T06:23:46.667Z,81.17
2023-02-28T06:24:32.409Z,80.71
2023-02-28T06:25:14.653Z,80.66
2023-02-28T06:25:59.079Z,81.01
2023-02-28T06:26:39.637Z,81.10
2023-02-28T06:27:21.227Z,81.13
2023-02-28T06:28:02.633Z,81.35
2023-02-28T06:28:42.706Z,81.43
2023-02-28T06:29:24.656Z,81.13
2023-02-28T06:30:04.732Z,81.17
2023-02-28T06:30:46.572Z,82.02
2023-02-28T06:31:26.938Z,81.56
2023-02-28T06:32:07.669Z,81.73
2023-02-28T06:32:50.154Z,81.06
2023-02-28T06:33:29.647Z,80.95
2023-02-28T06:34:09.681Z,81.71
2023-02-28T06:34:49.645Z,82.31
2023-02-28T06:35:30.468Z,82.18
2023-02-28T06:36:12.635Z,81.76
2023-02-28T06:36:52.707Z,81.19
2023-02-28T06:37:35.648Z,81.37
2023-02-28T06:38:15.773Z,81.55
2023-02-28T06:38:58.641Z,81.39
2023-02-28T06:39:40.083Z,81.00
2023-02-28T06:40:20.635Z,80.82
2023-02-28T06:41:04.754Z,80.80
2023-02-28T06:41:54.872Z,80.89
2023-02-28T06:42:35.694Z,81.40
2023-02-28T06:43:15.642Z,80.58
2023-02-28T06:43:55.704Z,80.50
2023-02-28T06:44:42.617Z,80.29
2023-02-28T06:45:29.642Z,80.66
2023-02-28T06:46:26.714Z,80.57
2023-02-28T06:47:20.639Z,80.70
2023-02-28T06:48:14.639Z,80.58
2023-02-28T06:49:08.611Z,80.47
2023-02-28T06:50:02.606Z,80.56
2023-02-28T06:50:49.644Z,80.32
2023-02-28T06:51:27.806Z,80.14
2023-02-28T06:52:16.615Z,80.00
2023-02-28T06:52:54.847Z,80.30
2023-02-28T06:53:42.606Z,79.82
2023-02-28T06:54:16.669Z,79.69
2023-02-28T06:55:10.618Z,79.90
2023-02-28T06:55:47.661Z,79.86
2023-02-28T06:56:28.637Z,79.53
2023-02-28T06:57:08.665Z,79.63
2023-02-28T06:57:48.604Z,79.13
2023-02-28T06:58:28.654Z,78.98
2023-02-28T06:59:08.608Z,79.21
2023-02-28T06:59:48.689Z,78.99
2023-02-28T07:00:29.663Z,79.27
2023-02-28T07:01:11.695Z,79.15
2023-02-28T07:01:52.642Z,79.18
2023-02-28T07:02:33.687Z,78.97
2023-02-28T07:03:13.701Z,78.72
2023-02-28T07:03:54.679Z,79.31
2023-02-28T07:04:35.625Z,79.35
2023-02-28T07:05:15.664Z,78.96
2023-02-28T07:05:55.587Z,78.94
2023-02-28T07:06:35.679Z,78.81
2023-02-28T07:07:15.603Z,78.46
2023-02-28T07:07:55.747Z,78.54
2023-02-28T07:08:35.598Z,79.13
2023-02-28T07:09:29.581Z,79.07
2023-02-28T07:10:25.591Z,78.50
2023-02-28T07:11:19.587Z,78.60
2023-02-28T07:12:13.582Z,78.62
2023-02-28T07:12:54.580Z,78.22
2023-02-28T07:13:34.699Z,78.48
2023-02-28T07:14:15.597Z,77.60
2023-02-28T07:14:56.774Z,77.84
2023-02-28T07:15:39.736Z,77.89
2023-02-28T07:16:20.735Z,77.58
2023-02-28T07:17:01.581Z,77.31
2023-02-28T07:17:41.636Z,77.37
2023-02-28T07:18:15.624Z,77.42
2023-02-28T07:19:02.620Z,77.06
2023-02-28T07:19:36.699Z,76.48
2023-02-28T07:20:24.552Z,76.72
2023-02-28T07:20:58.638Z,76.55
2023-02-28T07:21:45.592Z,76.74
2023-02-28T07:22:19.642Z,76.64
2023-02-28T07:23:06.609Z,75.76
2023-02-28T07:23:40.651Z,76.26
2023-02-28T07:24:28.573Z,75.65
2023-02-28T07:25:02.617Z,76.56
2023-02-28T07:25:49.545Z,76.49
2023-02-28T07:26:25.707Z,76.70
2023-02-28T07:27:12.548Z,76.28
2023-02-28T07:27:46.622Z,76.03
2023-02-28T07:28:26.585Z,76.66
2023-02-28T07:29:06.676Z,75.93
2023-02-28T07:29:46.599Z,75.77
2023-02-28T07:30:27.655Z,75.65
2023-02-28T07:31:14.571Z,75.56
2023-02-28T07:31:54.713Z,75.24
2023-02-28T07:32:35.559Z,74.99
2023-02-28T07:33:17.627Z,74.96
2023-02-28T07:33:57.598Z,74.67
2023-02-28T07:34:37.693Z,74.97
2023-02-28T07:35:17.576Z,75.05
2023-02-28T07:35:57.644Z,74.54
2023-02-28T07:36:38.551Z,74.55
2023-02-28T07:37:18.661Z,74.74
2023-02-28T07:37:58.555Z,74.08
2023-02-28T07:38:52.549Z,74.94
2023-02-28T07:39:32.563Z,74.57
2023-02-28T07:40:15.635Z,74.15
2023-02-28T07:40:56.572Z,74.35
2023-02-28T07:41:44.192Z,74.10
2023-02-28T07:42:24.553Z,73.69
2023-02-28T07:43:07.646Z,73.93
2023-02-28T07:43:47.571Z,73.13
2023-02-28T07:44:27.684Z,73.04
2023-02-28T07:45:09.571Z,73.54
2023-02-28T07:45:49.623Z,73.43
2023-02-28T07:46:30.742Z,73.29
2023-02-28T07:47:11.704Z,72.67
2023-02-28T07:47:51.545Z,72.27
2023-02-28T07:48:31.650Z,72.11
2023-02-28T07:49:12.547Z,72.46
2023-02-28T07:49:52.635Z,72.90
2023-02-28T07:50:32.552Z,71.85
2023-02-28T07:51:13.155Z,71.73
2023-02-28T07:51:53.528Z,72.41
2023-02-28T07:52:33.597Z,71.68
2023-02-28T07:53:14.514Z,71.89
2023-02-28T07:53:54.618Z,71.62
2023-02-28T07:54:34.547Z,70.67
2023-02-28T07:55:17.680Z,71.28
2023-02-28T07:55:57.569Z,71.81
2023-02-28T07:56:37.585Z,71.26
2023-02-28T07:57:18.555Z,71.28
2023-02-28T07:57:58.592Z,71.05
2023-02-28T07:58:39.523Z,70.22
2023-02-28T07:59:19.585Z,70.03
2023-02-28T07:59:59.551Z,70.35
2023-02-28T08:00:39.630Z,71.29
2023-02-28T08:01:20.554Z,71.05
2023-02-28T08:02:00.645Z,71.14
2023-02-28T08:02:41.544Z,70.21
2023-02-28T08:03:21.713Z,69.91
2023-02-28T08:04:02.535Z,70.96
2023-02-28T08:04:42.679Z,69.69
2023-02-28T08:05:23.528Z,69.31
2023-02-28T08:06:03.583Z,69.08
2023-02-28T08:06:43.575Z,69.62
2023-02-28T08:07:24.647Z,68.88
2023-02-28T08:08:04.535Z,67.79
2023-02-28T08:08:45.377Z,68.10
2023-02-28T08:09:26.526Z,68.25
2023-02-28T08:10:06.627Z,68.03
2023-02-28T08:10:46.550Z,68.22
2023-02-28T08:11:26.601Z,68.07
2023-02-28T08:12:06.518Z,68.33
2023-02-28T08:12:46.566Z,67.95
2023-02-28T08:13:27.527Z,68.50
2023-02-28T08:14:07.602Z,67.93
2023-02-28T08:14:47.564Z,67.99
2023-02-28T08:15:27.773Z,68.36
2023-02-28T08:16:09.533Z,68.76
2023-02-28T08:16:49.578Z,69.01
2023-02-28T08:17:30.543Z,68.34
2023-02-28T08:18:10.623Z,67.88
2023-02-28T08:18:51.498Z,67.63
2023-02-28T08:19:31.603Z,68.19
2023-02-28T08:20:12.525Z,67.25
2023-02-28T08:20:52.650Z,67.75
2023-02-28T08:21:33.520Z,67.56
2023-02-28T08:22:13.569Z,68.00
2023-02-28T08:22:53.558Z,67.71
2023-02-28T08:23:34.471Z,67.63
2023-02-28T08:24:15.498Z,66.54
2023-02-28T08:24:55.564Z,66.91
2023-02-28T08:25:36.493Z,67.68
2023-02-28T08:26:16.662Z,67.88
2023-02-28T08:26:56.538Z,67.53
2023-02-28T08:27:36.571Z,67.38
2023-02-28T08:28:16.519Z,67.66
2023-02-28T08:28:57.730Z,67.62
2023-02-28T08:29:39.495Z,67.54
2023-02-28T08:30:21.561Z,67.84
2023-02-28T08:31:02.493Z,67.68
2023-02-28T08:31:42.637Z,67.55
2023-02-28T08:32:30.641Z,68.11
2023-02-28T08:33:24.547Z,67.93
2023-02-28T08:34:23.503Z,68.52
2023-02-28T08:35:19.491Z,67.82
2023-02-28T08:36:13.515Z,67.53
2023-02-28T08:37:07.490Z,67.57
2023-02-28T08:38:04.486Z,67.53
2023-02-28T08:38:45.505Z,66.68
2023-02-28T08:39:25.745Z,67.59
2023-02-28T08:40:05.504Z,67.38
2023-02-28T08:40:45.552Z,67.09
2023-02-28T08:41:25.484Z,67.23
2023-02-28T08:42:07.810Z,67.47
2023-02-28T08:42:48.475Z,67.61
2023-02-28T08:43:28.576Z,67.50
2023-02-28T08:44:08.489Z,67.83
2023-02-28T08:44:48.582Z,67.05
2023-02-28T08:45:28.546Z,66.75
2023-02-28T08:46:09.635Z,67.30
2023-02-28T08:46:50.489Z,67.81
2023-02-28T08:47:30.612Z,67.55
2023-02-28T08:48:11.476Z,68.12
2023-02-28T08:48:51.528Z,67.87
2023-02-28T08:49:32.496Z,67.35
2023-02-28T08:50:15.796Z,67.01
2023-02-28T08:51:11.490Z,67.21
2023-02-28T08:51:51.545Z,67.13
2023-02-28T08:52:31.500Z,67.24
2023-02-28T08:53:11.553Z,67.27
2023-02-28T08:53:53.487Z,67.60
2023-02-28T08:54:40.699Z,67.85
2023-02-28T08:55:34.467Z,66.98
2023-02-28T08:56:30.471Z,67.23
2023-02-28T08:57:24.455Z,67.16
2023-02-28T08:58:18.446Z,67.63
2023-02-28T08:59:12.495Z,67.26
2023-02-28T09:00:00.490Z,67.26
2023-02-28T09:00:34.519Z,67.23
2023-02-28T09:01:54.467Z,67.80
2023-02-28T09:02:28.534Z,66.96
2023-02-28T09:03:15.447Z,67.33
2023-02-28T09:03:49.550Z,67.75
2023-02-28T09:04:38.463Z,68.07
2023-02-28T09:05:19.690Z,67.47
2023-02-28T09:06:15.472Z,67.31
2023-02-28T09:07:09.451Z,66.74
2023-02-28T09:08:04.459Z,67.19
2023-02-28T09:08:58.453Z,67.09
2023-02-28T09:10:01.467Z,66.76
2023-02-28T09:10:42.464Z,67.53
2023-02-28T09:11:22.503Z,67.32
2023-02-28T09:12:06.470Z,67.47
2023-02-28T09:12:47.911Z,67.26
2023-02-28T09:13:28.450Z,67.39
2023-02-28T09:14:09.517Z,67.17
2023-02-28T09:14:50.464Z,66.91
2023-02-28T09:15:30.516Z,67.06
2023-02-28T09:16:13.517Z,67.19
2023-02-28T09:16:53.563Z,66.68
2023-02-28T09:17:33.432Z,66.86
2023-02-28T09:18:13.547Z,66.51
2023-02-28T09:18:54.468Z,66.84
2023-02-28T09:19:34.513Z,66.87
2023-02-28T09:20:15.448Z,66.59
2023-02-28T09:20:55.611Z,67.13
2023-02-28T09:21:36.463Z,67.52
2023-02-28T09:22:17.562Z,67.18
2023-02-28T09:22:58.430Z,67.64
2023-02-28T09:23:41.267Z,67.34
2023-02-28T09:24:22.424Z,66.64
2023-02-28T09:25:02.594Z,67.63
2023-02-28T09:25:43.442Z,67.34
2023-02-28T09:26:26.543Z,67.11
2023-02-28T09:27:07.725Z,67.33
2023-02-28T09:27:48.503Z,67.36
2023-02-28T09:28:29.426Z,67.43
2023-02-28T09:29:09.577Z,67.58
2023-02-28T09:29:49.438Z,68.07
2023-02-28T09:30:29.682Z,67.61
2023-02-28T09:31:12.473Z,68.14
2023-02-28T09:31:52.574Z,68.04
2023-02-28T09:32:32.547Z,67.53
2023-02-28T09:33:12.494Z,67.84
2023-02-28T09:33:52.467Z,67.96
2023-02-28T09:34:34.615Z,67.23
2023-02-28T09:35:20.435Z,66.38
2023-02-28T09:36:07.516Z,66.21
2023-02-28T09:36:48.346Z,66.92
2023-02-28T09:37:30.270Z,66.75
2023-02-28T09:38:11.473Z,66.74
2023-02-28T09:38:53.897Z,67.32
2023-02-28T09:39:34.452Z,67.30
2023-02-28T09:40:20.596Z,67.65
2023-02-28T09:41:11.426Z,67.46
2023-02-28T09:41:54.517Z,66.89
2023-02-28T09:42:40.417Z,67.21
2023-02-28T09:43:30.436Z,67.06
2023-02-28T09:44:32.441Z,66.92
2023-02-28T09:45:41.486Z,67.36
2023-02-28T09:47:00.449Z,67.22
2023-02-28T09:47:59.413Z,67.61
2023-02-28T09:48:53.435Z,67.42
2023-02-28T09:49:41.532Z,67.00
2023-02-28T09:50:49.430Z,66.96